sensor_id;sensor_type;location;lat;lon;timestamp;pressure;altitude;pressure_sealevel;temperature;humidity
79331;BME280;68797;49.782;19.054;2023-11-22T00:01:19;97310.16;;;1.01;100.00
79331;BME280;68797;49.782;19.054;2023-11-22T00:03:46;97321.41;;;0.99;100.00
79331;BME280;68797;49.782;19.054;2023-11-22T00:06:12;97305.56;;;0.70;100.00
79331;BME280;68797;49.782;19.054;2023-11-22T00:08:39;97323.16;;;0.95;100.00
79331;BME280;68797;49.782;19.054;2023-11-22T00:11:06;97324.81;;;0.87;100.00
79331;BME280;68797;49.782;19.054;2023-11-22T00:13:33;97334.41;;;0.86;100.00
79331;BME280;68797;49.782;19.054;2023-11-22T00:16:00;97319.69;;;0.99;100.00
79331;BME280;68797;49.782;19.054;2023-11-22T00:18:28;97311.91;;;1.07;100.00
79331;BME280;68797;49.782;19.054;2023-11-22T00:20:55;97328.50;;;1.12;100.00
79331;BME280;68797;49.782;19.054;2023-11-22T00:23:22;97339.69;;;0.97;100.00
79331;BME280;68797;49.782;19.054;2023-11-22T00:25:53;97334.56;;;1.09;100.00
79331;BME280;68797;49.782;19.054;2023-11-22T00:28:20;97335.50;;;1.21;100.00
79331;BME280;68797;49.782;19.054;2023-11-22T00:30:47;97340.56;;;0.92;100.00
79331;BME280;68797;49.782;19.054;2023-11-22T00:33:14;97335.34;;;0.95;100.00
79331;BME280;68797;49.782;19.054;2023-11-22T00:35:43;97349.19;;;0.81;100.00
79331;BME280;68797;49.782;19.054;2023-11-22T00:38:10;97352.75;;;0.97;100.00
79331;BME280;68797;49.782;19.054;2023-11-22T00:40:37;97363.28;;;1.06;100.00
79331;BME280;68797;49.782;19.054;2023-11-22T00:43:04;97364.22;;;1.17;100.00
79331;BME280;68797;49.782;19.054;2023-11-22T00:45:31;97368.44;;;0.94;100.00
79331;BME280;68797;49.782;19.054;2023-11-22T00:48:01;97366.69;;;0.93;100.00
79331;BME280;68797;49.782;19.054;2023-11-22T00:50:29;97362.31;;;0.92;100.00
79331;BME280;68797;49.782;19.054;2023-11-22T00:52:56;97369.22;;;0.87;100.00
79331;BME280;68797;49.782;19.054;2023-11-22T00:55:23;97362.94;;;0.61;100.00
79331;BME280;68797;49.782;19.054;2023-11-22T00:57:52;97362.22;;;0.80;100.00
79331;BME280;68797;49.782;19.054;2023-11-22T01:00:18;97355.25;;;0.79;100.00
79331;BME280;68797;49.782;19.054;2023-11-22T01:02:47;97364.00;;;0.85;100.00
79331;BME280;68797;49.782;19.054;2023-11-22T01:05:15;97349.25;;;0.94;100.00
79331;BME280;68797;49.782;19.054;2023-11-22T01:07:45;97340.47;;;0.82;100.00
79331;BME280;68797;49.782;19.054;2023-11-22T01:10:13;97358.69;;;0.76;100.00
79331;BME280;68797;49.782;19.054;2023-11-22T01:12:41;97350.94;;;0.85;100.00
79331;BME280;68797;49.782;19.054;2023-11-22T01:15:09;97365.59;;;0.67;100.00
79331;BME280;68797;49.782;19.054;2023-11-22T01:17:36;97362.31;;;0.89;100.00
79331;BME280;68797;49.782;19.054;2023-11-22T01:20:04;97363.22;;;0.97;100.00
79331;BME280;68797;49.782;19.054;2023-11-22T01:22:31;97376.28;;;0.99;100.00
79331;BME280;68797;49.782;19.054;2023-11-22T01:24:59;97370.00;;;0.75;100.00
79331;BME280;68797;49.782;19.054;2023-11-22T01:27:27;97373.47;;;0.70;100.00
79331;BME280;68797;49.782;19.054;2023-11-22T01:29:55;97376.88;;;0.66;100.00
79331;BME280;68797;49.782;19.054;2023-11-22T01:32:24;97373.47;;;0.71;100.00
79331;BME280;68797;49.782;19.054;2023-11-22T01:34:52;97376.09;;;0.76;100.00
79331;BME280;68797;49.782;19.054;2023-11-22T01:37:21;97385.75;;;0.84;100.00
79331;BME280;68797;49.782;19.054;2023-11-22T01:39:48;97387.59;;;0.98;100.00
79331;BME280;68797;49.782;19.054;2023-11-22T01:42:15;97376.97;;;0.73;100.00
79331;BME280;68797;49.782;19.054;2023-11-22T01:44:42;97387.16;;;0.46;100.00
79331;BME280;68797;49.782;19.054;2023-11-22T01:47:10;97392.63;;;0.72;100.00
79331;BME280;68797;49.782;19.054;2023-11-22T01:49:36;97391.84;;;0.82;100.00
79331;BME280;68797;49.782;19.054;2023-11-22T01:52:04;97394.38;;;0.73;100.00
79331;BME280;68797;49.782;19.054;2023-11-22T01:54:31;97405.78;;;0.85;100.00
79331;BME280;68797;49.782;19.054;2023-11-22T01:57:01;97399.75;;;0.91;100.00
79331;BME280;68797;49.782;19.054;2023-11-22T01:59:29;97410.13;;;0.82;100.00
79331;BME280;68797;49.782;19.054;2023-11-22T02:01:58;97416.97;;;0.68;100.00
79331;BME280;68797;49.782;19.054;2023-11-22T02:04:25;97412.53;;;0.62;100.00
79331;BME280;68797;49.782;19.054;2023-11-22T02:06:53;97410.63;;;0.44;100.00
79331;BME280;68797;49.782;19.054;2023-11-22T02:09:20;97410.69;;;0.50;100.00
79331;BME280;68797;49.782;19.054;2023-11-22T02:11:49;97413.31;;;0.52;100.00
79331;BME280;68797;49.782;19.054;2023-11-22T02:14:16;97422.09;;;0.57;100.00
79331;BME280;68797;49.782;19.054;2023-11-22T02:16:43;97426.34;;;0.47;100.00
79331;BME280;68797;49.782;19.054;2023-11-22T02:19:15;97419.38;;;0.49;100.00
79331;BME280;68797;49.782;19.054;2023-11-22T02:21:47;97425.34;;;0.36;100.00
79331;BME280;68797;49.782;19.054;2023-11-22T02:24:14;97427.22;;;0.49;100.00
79331;BME280;68797;49.782;19.054;2023-11-22T02:26:46;97427.22;;;0.51;100.00
79331;BME280;68797;49.782;19.054;2023-11-22T02:29:14;97430.81;;;0.62;100.00
79331;BME280;68797;49.782;19.054;2023-11-22T02:31:44;97431.69;;;0.61;100.00
79331;BME280;68797;49.782;19.054;2023-11-22T02:34:11;97438.78;;;0.76;100.00
79331;BME280;68797;49.782;19.054;2023-11-22T02:36:37;97431.09;;;0.90;100.00
79331;BME280;68797;49.782;19.054;2023-11-22T02:39:04;97426.66;;;0.84;98.98
79331;BME280;68797;49.782;19.054;2023-11-22T02:41:42;97428.41;;;0.83;99.69
79331;BME280;68797;49.782;19.054;2023-11-22T02:44:08;97426.66;;;0.84;99.49
79331;BME280;68797;49.782;19.054;2023-11-22T02:46:36;97433.66;;;0.85;99.66
79331;BME280;68797;49.782;19.054;2023-11-22T02:49:08;97431.88;;;0.81;99.26
79331;BME280;68797;49.782;19.054;2023-11-22T02:51:40;97426.66;;;0.79;98.91
79331;BME280;68797;49.782;19.054;2023-11-22T02:54:08;97431.00;;;0.82;99.64
79331;BME280;68797;49.782;19.054;2023-11-22T02:56:37;97437.19;;;0.90;99.83
79331;BME280;68797;49.782;19.054;2023-11-22T02:59:04;97435.06;;;0.49;99.44
79331;BME280;68797;49.782;19.054;2023-11-22T03:01:32;97446.34;;;0.47;100.00
79331;BME280;68797;49.782;19.054;2023-11-22T03:03:59;97452.34;;;0.40;100.00
79331;BME280;68797;49.782;19.054;2023-11-22T03:06:26;97447.22;;;0.46;100.00
79331;BME280;68797;49.782;19.054;2023-11-22T03:08:54;97469.72;;;0.38;100.00
79331;BME280;68797;49.782;19.054;2023-11-22T03:11:22;97473.34;;;0.49;100.00
79331;BME280;68797;49.782;19.054;2023-11-22T03:13:50;97483.00;;;0.56;100.00
79331;BME280;68797;49.782;19.054;2023-11-22T03:16:17;97487.25;;;0.49;100.00
79331;BME280;68797;49.782;19.054;2023-11-22T03:18:44;97486.09;;;0.24;100.00
79331;BME280;68797;49.782;19.054;2023-11-22T03:21:11;97482.63;;;0.24;100.00
79331;BME280;68797;49.782;19.054;2023-11-22T03:23:39;97490.44;;;0.24;100.00
79331;BME280;68797;49.782;19.054;2023-11-22T03:26:07;97496.19;;;-0.03;100.00
79331;BME280;68797;49.782;19.054;2023-11-22T03:28:34;97503.22;;;0.01;100.00
79331;BME280;68797;49.782;19.054;2023-11-22T03:31:00;97499.78;;;0.05;100.00
79331;BME280;68797;49.782;19.054;2023-11-22T03:33:30;97499.06;;;0.18;100.00
79331;BME280;68797;49.782;19.054;2023-11-22T03:35:57;97512.22;;;0.27;100.00
79331;BME280;68797;49.782;19.054;2023-11-22T03:38:25;97502.63;;;0.25;100.00
79331;BME280;68797;49.782;19.054;2023-11-22T03:40:52;97505.22;;;0.23;100.00
79331;BME280;68797;49.782;19.054;2023-11-22T03:43:19;97506.16;;;0.28;100.00
79331;BME280;68797;49.782;19.054;2023-11-22T03:45:46;97507.03;;;0.29;100.00
79331;BME280;68797;49.782;19.054;2023-11-22T03:48:13;97514.88;;;0.31;100.00
79331;BME280;68797;49.782;19.054;2023-11-22T03:50:40;97526.31;;;0.43;100.00
79331;BME280;68797;49.782;19.054;2023-11-22T03:53:07;97530.69;;;0.44;100.00
79331;BME280;68797;49.782;19.054;2023-11-22T03:55:34;97541.22;;;0.52;100.00
79331;BME280;68797;49.782;19.054;2023-11-22T03:58:01;97548.13;;;0.47;100.00
79331;BME280;68797;49.782;19.054;2023-11-22T04:00:29;97558.66;;;0.54;100.00
79331;BME280;68797;49.782;19.054;2023-11-22T04:02:56;97558.47;;;0.39;100.00
79331;BME280;68797;49.782;19.054;2023-11-22T04:05:26;97564.59;;;0.43;99.53
79331;BME280;68797;49.782;19.054;2023-11-22T04:07:53;97578.63;;;0.49;100.00
79331;BME280;68797;49.782;19.054;2023-11-22T04:10:21;97569.91;;;0.47;100.00
79331;BME280;68797;49.782;19.054;2023-11-22T04:12:49;97575.88;;;0.40;99.84
79331;BME280;68797;49.782;19.054;2023-11-22T04:15:16;97580.34;;;0.47;100.00
79331;BME280;68797;49.782;19.054;2023-11-22T04:17:43;97569.16;;;0.57;100.00
79331;BME280;68797;49.782;19.054;2023-11-22T04:20:10;97569.09;;;0.53;100.00
79331;BME280;68797;49.782;19.054;2023-11-22T04:22:38;97575.00;;;0.40;100.00
79331;BME280;68797;49.782;19.054;2023-11-22T04:25:04;97590.66;;;0.40;100.00
79331;BME280;68797;49.782;19.054;2023-11-22T04:27:33;97592.16;;;0.21;100.00
79331;BME280;68797;49.782;19.054;2023-11-22T04:30:00;97604.25;;;0.14;100.00
79331;BME280;68797;49.782;19.054;2023-11-22T04:32:27;97606.91;;;0.19;100.00
79331;BME280;68797;49.782;19.054;2023-11-22T04:34:54;97606.44;;;-0.12;100.00
79331;BME280;68797;49.782;19.054;2023-11-22T04:37:22;97598.56;;;-0.18;100.00
79331;BME280;68797;49.782;19.054;2023-11-22T04:39:53;97603.81;;;-0.13;100.00
79331;BME280;68797;49.782;19.054;2023-11-22T04:42:20;97625.53;;;-0.14;100.00
79331;BME280;68797;49.782;19.054;2023-11-22T04:44:47;97634.53;;;0.03;100.00
79331;BME280;68797;49.782;19.054;2023-11-22T04:47:14;97641.41;;;-0.01;100.00
79331;BME280;68797;49.782;19.054;2023-11-22T04:49:41;97640.41;;;-0.10;100.00
79331;BME280;68797;49.782;19.054;2023-11-22T04:52:10;97663.66;;;-0.22;100.00
79331;BME280;68797;49.782;19.054;2023-11-22T04:54:37;97665.16;;;-0.37;100.00
79331;BME280;68797;49.782;19.054;2023-11-22T04:57:03;97669.63;;;-0.30;100.00
79331;BME280;68797;49.782;19.054;2023-11-22T04:59:31;97669.78;;;-0.20;100.00
79331;BME280;68797;49.782;19.054;2023-11-22T05:01:58;97675.97;;;-0.12;100.00
79331;BME280;68797;49.782;19.054;2023-11-22T05:04:25;97675.22;;;-0.07;100.00
79331;BME280;68797;49.782;19.054;2023-11-22T05:10:14;97674.00;;;-0.28;100.00
79331;BME280;68797;49.782;19.054;2023-11-22T05:12:45;97693.13;;;-0.26;100.00
79331;BME280;68797;49.782;19.054;2023-11-22T05:15:12;97680.75;;;-0.40;100.00
79331;BME280;68797;49.782;19.054;2023-11-22T05:17:40;97702.75;;;-0.22;100.00
79331;BME280;68797;49.782;19.054;2023-11-22T05:20:07;97709.81;;;-0.17;100.00
79331;BME280;68797;49.782;19.054;2023-11-22T05:22:46;97702.69;;;-0.27;100.00
79331;BME280;68797;49.782;19.054;2023-11-22T05:25:14;97700.31;;;-0.13;100.00
79331;BME280;68797;49.782;19.054;2023-11-22T05:27:40;97706.44;;;-0.11;100.00
79331;BME280;68797;49.782;19.054;2023-11-22T05:30:08;97705.59;;;-0.10;100.00
79331;BME280;68797;49.782;19.054;2023-11-22T05:32:39;97714.13;;;-0.20;100.00
79331;BME280;68797;49.782;19.054;2023-11-22T05:35:06;97718.94;;;-0.42;100.00
79331;BME280;68797;49.782;19.054;2023-11-22T05:37:37;97729.66;;;-0.25;100.00
79331;BME280;68797;49.782;19.054;2023-11-22T05:40:05;97733.63;;;-0.45;100.00
79331;BME280;68797;49.782;19.054;2023-11-22T05:42:32;97727.81;;;-0.32;100.00
79331;BME280;68797;49.782;19.054;2023-11-22T05:44:58;97715.72;;;-0.27;100.00
79331;BME280;68797;49.782;19.054;2023-11-22T05:47:25;97718.41;;;-0.22;100.00
79331;BME280;68797;49.782;19.054;2023-11-22T05:49:51;97722.84;;;-0.18;100.00
79331;BME280;68797;49.782;19.054;2023-11-22T05:52:18;97727.00;;;-0.28;100.00
79331;BME280;68797;49.782;19.054;2023-11-22T05:54:45;97719.34;;;-0.19;100.00
79331;BME280;68797;49.782;19.054;2023-11-22T05:57:13;97718.19;;;-0.35;100.00
79331;BME280;68797;49.782;19.054;2023-11-22T05:59:39;97718.56;;;-0.13;100.00
79331;BME280;68797;49.782;19.054;2023-11-22T06:02:05;97720.41;;;-0.09;100.00
79331;BME280;68797;49.782;19.054;2023-11-22T06:04:31;97720.22;;;-0.18;100.00
79331;BME280;68797;49.782;19.054;2023-11-22T06:06:58;97726.41;;;-0.12;100.00
79331;BME280;68797;49.782;19.054;2023-11-22T06:09:26;97719.38;;;-0.17;100.00
79331;BME280;68797;49.782;19.054;2023-11-22T06:11:53;97738.56;;;-0.14;100.00
79331;BME280;68797;49.782;19.054;2023-11-22T06:14:20;97738.47;;;-0.20;99.23
79331;BME280;68797;49.782;19.054;2023-11-22T06:16:48;97729.41;;;-0.39;100.00
79331;BME280;68797;49.782;19.054;2023-11-22T06:19:15;97735.28;;;-0.50;100.00
79331;BME280;68797;49.782;19.054;2023-11-22T06:21:42;97754.59;;;-0.41;100.00
79331;BME280;68797;49.782;19.054;2023-11-22T06:24:09;97758.81;;;-0.46;100.00
79331;BME280;68797;49.782;19.054;2023-11-22T06:26:37;97756.41;;;-0.35;100.00
79331;BME280;68797;49.782;19.054;2023-11-22T06:29:06;97764.00;;;-0.47;100.00
79331;BME280;68797;49.782;19.054;2023-11-22T06:31:33;97781.56;;;-0.39;100.00
79331;BME280;68797;49.782;19.054;2023-11-22T06:34:00;97779.81;;;-0.38;100.00
79331;BME280;68797;49.782;19.054;2023-11-22T06:36:27;97773.59;;;-0.45;100.00
79331;BME280;68797;49.782;19.054;2023-11-22T06:38:55;97782.34;;;-0.43;100.00
79331;BME280;68797;49.782;19.054;2023-11-22T06:41:22;97785.63;;;-0.53;100.00
79331;BME280;68797;49.782;19.054;2023-11-22T06:43:48;97770.78;;;-0.55;100.00
79331;BME280;68797;49.782;19.054;2023-11-22T06:46:15;97775.25;;;-0.50;100.00
79331;BME280;68797;49.782;19.054;2023-11-22T06:48:42;97794.50;;;-0.43;100.00
79331;BME280;68797;49.782;19.054;2023-11-22T06:51:11;97798.53;;;-0.59;100.00
79331;BME280;68797;49.782;19.054;2023-11-22T06:53:38;97801.06;;;-0.62;100.00
79331;BME280;68797;49.782;19.054;2023-11-22T06:56:05;97814.06;;;-0.65;100.00
79331;BME280;68797;49.782;19.054;2023-11-22T06:58:31;97804.47;;;-0.66;100.00
79331;BME280;68797;49.782;19.054;2023-11-22T07:00:57;97803.00;;;-0.53;100.00
79331;BME280;68797;49.782;19.054;2023-11-22T07:03:24;97799.72;;;-0.43;100.00
79331;BME280;68797;49.782;19.054;2023-11-22T07:05:50;97801.59;;;-0.35;100.00
79331;BME280;68797;49.782;19.054;2023-11-22T07:08:16;97806.97;;;-0.28;100.00
79331;BME280;68797;49.782;19.054;2023-11-22T07:10:43;97800.56;;;-0.44;100.00
79331;BME280;68797;49.782;19.054;2023-11-22T07:13:13;97818.25;;;-0.28;100.00
79331;BME280;68797;49.782;19.054;2023-11-22T07:15:39;97802.44;;;-0.37;99.64
79331;BME280;68797;49.782;19.054;2023-11-22T07:18:06;97820.03;;;-0.25;100.00
79331;BME280;68797;49.782;19.054;2023-11-22T07:20:33;97820.81;;;-0.31;99.14
79331;BME280;68797;49.782;19.054;2023-11-22T07:22:59;97820.75;;;-0.34;100.00
79331;BME280;68797;49.782;19.054;2023-11-22T07:25:26;97837.09;;;-0.43;99.92
79331;BME280;68797;49.782;19.054;2023-11-22T07:27:52;97831.91;;;-0.41;100.00
79331;BME280;68797;49.782;19.054;2023-11-22T07:30:21;97819.00;;;-0.34;100.00
79331;BME280;68797;49.782;19.054;2023-11-22T07:32:53;97828.75;;;-0.25;100.00
79331;BME280;68797;49.782;19.054;2023-11-22T07:35:19;97839.16;;;-0.26;100.00
79331;BME280;68797;49.782;19.054;2023-11-22T07:37:49;97827.56;;;-0.41;99.51
79331;BME280;68797;49.782;19.054;2023-11-22T07:40:18;97830.22;;;-0.39;100.00
79331;BME280;68797;49.782;19.054;2023-11-22T07:42:45;97855.69;;;-0.24;100.00
79331;BME280;68797;49.782;19.054;2023-11-22T07:45:11;97848.91;;;-0.16;99.55
79331;BME280;68797;49.782;19.054;2023-11-22T07:47:38;97855.78;;;-0.21;99.57
79331;BME280;68797;49.782;19.054;2023-11-22T07:50:08;97857.44;;;-0.25;99.53
79331;BME280;68797;49.782;19.054;2023-11-22T07:52:34;97840.25;;;-0.57;97.19
79331;BME280;68797;49.782;19.054;2023-11-22T07:55:01;97845.44;;;-0.59;99.19
79331;BME280;68797;49.782;19.054;2023-11-22T07:57:27;97843.84;;;-0.52;98.82
79331;BME280;68797;49.782;19.054;2023-11-22T07:59:54;97862.63;;;-0.67;98.59
79331;BME280;68797;49.782;19.054;2023-11-22T08:02:21;97867.81;;;-0.69;99.62
79331;BME280;68797;49.782;19.054;2023-11-22T08:04:48;97878.31;;;-0.66;100.00
79331;BME280;68797;49.782;19.054;2023-11-22T08:07:16;97881.16;;;-0.55;99.64
79331;BME280;68797;49.782;19.054;2023-11-22T08:09:43;97881.09;;;-0.56;98.76
79331;BME280;68797;49.782;19.054;2023-11-22T08:12:09;97891.50;;;-0.58;100.00
79331;BME280;68797;49.782;19.054;2023-11-22T08:14:37;97901.94;;;-0.56;97.98
79331;BME280;68797;49.782;19.054;2023-11-22T08:17:04;97895.16;;;-0.50;98.10
79331;BME280;68797;49.782;19.054;2023-11-22T08:19:31;97903.03;;;-0.47;97.26
79331;BME280;68797;49.782;19.054;2023-11-22T08:21:58;97910.75;;;-0.51;99.21
79331;BME280;68797;49.782;19.054;2023-11-22T08:24:24;97904.72;;;-0.49;98.57
79331;BME280;68797;49.782;19.054;2023-11-22T08:26:50;97907.34;;;-0.49;98.21
79331;BME280;68797;49.782;19.054;2023-11-22T08:29:16;97909.91;;;-0.50;97.91
79331;BME280;68797;49.782;19.054;2023-11-22T08:31:42;97898.59;;;-0.51;98.95
79331;BME280;68797;49.782;19.054;2023-11-22T08:34:09;97898.78;;;-0.43;98.13
79331;BME280;68797;49.782;19.054;2023-11-22T08:36:37;97895.53;;;-0.33;98.14
79331;BME280;68797;49.782;19.054;2023-11-22T08:39:03;97894.63;;;-0.34;97.29
79331;BME280;68797;49.782;19.054;2023-11-22T08:41:34;97908.66;;;-0.27;97.18
79331;BME280;68797;49.782;19.054;2023-11-22T08:44:01;97918.03;;;-0.35;97.17
79331;BME280;68797;49.782;19.054;2023-11-22T08:46:28;97925.06;;;-0.33;97.17
79331;BME280;68797;49.782;19.054;2023-11-22T08:48:54;97934.00;;;-0.21;98.31
79331;BME280;68797;49.782;19.054;2023-11-22T08:51:22;97928.66;;;-0.27;98.26
79331;BME280;68797;49.782;19.054;2023-11-22T08:53:48;97922.25;;;-0.43;96.82
79331;BME280;68797;49.782;19.054;2023-11-22T08:56:14;97931.66;;;-0.48;98.07
79331;BME280;68797;49.782;19.054;2023-11-22T08:58:42;97925.34;;;-0.60;99.07
79331;BME280;68797;49.782;19.054;2023-11-22T09:01:08;97935.88;;;-0.55;98.86
79331;BME280;68797;49.782;19.054;2023-11-22T09:03:35;97931.56;;;-0.54;99.51
79331;BME280;68797;49.782;19.054;2023-11-22T09:06:01;97940.13;;;-0.59;97.50
79331;BME280;68797;49.782;19.054;2023-11-22T09:08:29;97934.44;;;-0.78;99.62
79331;BME280;68797;49.782;19.054;2023-11-22T09:10:55;97926.13;;;-0.64;100.00
79331;BME280;68797;49.782;19.054;2023-11-22T09:13:22;97939.06;;;-0.67;99.86
79331;BME280;68797;49.782;19.054;2023-11-22T09:15:48;97949.44;;;-0.68;100.00
79331;BME280;68797;49.782;19.054;2023-11-22T09:18:15;97958.25;;;-0.65;100.00
79331;BME280;68797;49.782;19.054;2023-11-22T09:20:44;97954.59;;;-0.71;99.94
79331;BME280;68797;49.782;19.054;2023-11-22T09:23:10;97953.00;;;-0.66;100.00
79331;BME280;68797;49.782;19.054;2023-11-22T09:25:37;97939.25;;;-0.59;100.00
79331;BME280;68797;49.782;19.054;2023-11-22T09:28:04;97953.94;;;-0.63;100.00
79331;BME280;68797;49.782;19.054;2023-11-22T09:30:31;97949.44;;;-0.70;98.88
79331;BME280;68797;49.782;19.054;2023-11-22T09:33:09;97956.25;;;-0.76;100.00
79331;BME280;68797;49.782;19.054;2023-11-22T09:35:37;97960.56;;;-0.77;100.00
79331;BME280;68797;49.782;19.054;2023-11-22T09:38:08;97951.13;;;-0.72;100.00
79331;BME280;68797;49.782;19.054;2023-11-22T09:40:40;97957.38;;;-0.65;99.97
79331;BME280;68797;49.782;19.054;2023-11-22T09:43:06;97972.91;;;-0.68;100.00
79331;BME280;68797;49.782;19.054;2023-11-22T09:45:33;97957.97;;;-0.77;100.00
79331;BME280;68797;49.782;19.054;2023-11-22T09:48:02;97959.63;;;-0.79;100.00
79331;BME280;68797;49.782;19.054;2023-11-22T09:50:40;97966.72;;;-0.73;100.00
79331;BME280;68797;49.782;19.054;2023-11-22T09:53:11;97966.50;;;-0.82;99.50
79331;BME280;68797;49.782;19.054;2023-11-22T09:55:41;97978.16;;;-1.03;100.00
79331;BME280;68797;49.782;19.054;2023-11-22T09:58:11;97986.09;;;-0.98;100.00
79331;BME280;68797;49.782;19.054;2023-11-22T10:00:40;97982.50;;;-1.02;100.00
79331;BME280;68797;49.782;19.054;2023-11-22T10:03:09;97981.78;;;-0.98;100.00
79331;BME280;68797;49.782;19.054;2023-11-22T10:05:35;97994.59;;;-1.05;100.00
79331;BME280;68797;49.782;19.054;2023-11-22T10:08:02;98005.84;;;-1.06;100.00
79331;BME280;68797;49.782;19.054;2023-11-22T10:10:30;98003.59;;;-0.93;100.00
79331;BME280;68797;49.782;19.054;2023-11-22T10:12:58;98006.25;;;-0.90;100.00
79331;BME280;68797;49.782;19.054;2023-11-22T10:15:27;98009.88;;;-0.84;100.00
79331;BME280;68797;49.782;19.054;2023-11-22T10:17:58;98016.84;;;-0.83;100.00
79331;BME280;68797;49.782;19.054;2023-11-22T10:20:37;98010.84;;;-0.79;100.00
79331;BME280;68797;49.782;19.054;2023-11-22T10:23:12;98021.16;;;-0.84;100.00
79331;BME280;68797;49.782;19.054;2023-11-22T10:25:45;98027.16;;;-0.88;100.00
79331;BME280;68797;49.782;19.054;2023-11-22T10:28:19;98026.22;;;-0.90;100.00
79331;BME280;68797;49.782;19.054;2023-11-22T10:30:46;98022.69;;;-0.92;100.00
79331;BME280;68797;49.782;19.054;2023-11-22T10:33:13;98016.22;;;-1.08;100.00
79331;BME280;68797;49.782;19.054;2023-11-22T10:35:46;98021.72;;;-0.97;100.00
79331;BME280;68797;49.782;19.054;2023-11-22T10:38:18;98021.56;;;-1.02;100.00
79331;BME280;68797;49.782;19.054;2023-11-22T10:40:45;98015.97;;;-1.17;100.00
79331;BME280;68797;49.782;19.054;2023-11-22T10:43:12;98031.72;;;-1.12;100.00
79331;BME280;68797;49.782;19.054;2023-11-22T10:45:38;98023.50;;;-0.95;100.00
79331;BME280;68797;49.782;19.054;2023-11-22T10:48:07;98015.94;;;-0.85;100.00
79331;BME280;68797;49.782;19.054;2023-11-22T10:50:34;98018.63;;;-0.81;100.00
79331;BME280;68797;49.782;19.054;2023-11-22T10:53:01;98015.78;;;-0.90;99.12
79331;BME280;68797;49.782;19.054;2023-11-22T10:55:32;98006.19;;;-0.93;100.00
79331;BME280;68797;49.782;19.054;2023-11-22T10:58:03;98005.38;;;-0.90;99.76
79331;BME280;68797;49.782;19.054;2023-11-22T11:00:31;98008.84;;;-0.90;99.95
79331;BME280;68797;49.782;19.054;2023-11-22T11:03:18;98013.34;;;-0.84;99.05
79331;BME280;68797;49.782;19.054;2023-11-22T11:05:50;98009.06;;;-0.82;98.88
79331;BME280;68797;49.782;19.054;2023-11-22T11:08:20;97995.81;;;-0.91;99.24
79331;BME280;68797;49.782;19.054;2023-11-22T11:10:47;97990.19;;;-0.72;97.93
79331;BME280;68797;49.782;19.054;2023-11-22T11:13:15;97997.13;;;-0.72;98.24
79331;BME280;68797;49.782;19.054;2023-11-22T11:15:43;97982.34;;;-0.73;97.07
79331;BME280;68797;49.782;19.054;2023-11-22T11:18:13;97992.22;;;-0.60;97.04
79331;BME280;68797;49.782;19.054;2023-11-22T11:20:51;97992.28;;;-0.57;96.40
79331;BME280;68797;49.782;19.054;2023-11-22T11:23:20;97987.88;;;-0.60;97.01
79331;BME280;68797;49.782;19.054;2023-11-22T11:25:49;97998.34;;;-0.58;98.57
79331;BME280;68797;49.782;19.054;2023-11-22T11:28:15;98010.69;;;-0.51;98.46
79331;BME280;68797;49.782;19.054;2023-11-22T11:30:49;98003.69;;;-0.53;98.26
79331;BME280;68797;49.782;19.054;2023-11-22T11:33:34;98004.47;;;-0.56;96.87
79331;BME280;68797;49.782;19.054;2023-11-22T11:36:03;97999.25;;;-0.92;97.50
79331;BME280;68797;49.782;19.054;2023-11-22T11:38:32;97997.19;;;-0.69;97.24
79331;BME280;68797;49.782;19.054;2023-11-22T11:41:17;98006.94;;;-0.62;97.99
79331;BME280;68797;49.782;19.054;2023-11-22T11:43:46;98016.69;;;-0.55;97.75
79331;BME280;68797;49.782;19.054;2023-11-22T11:46:13;98031.75;;;-0.42;95.93
79331;BME280;68797;49.782;19.054;2023-11-22T11:48:58;98039.22;;;-0.55;97.63
79331;BME280;68797;49.782;19.054;2023-11-22T11:51:26;98045.88;;;-0.68;99.03
79331;BME280;68797;49.782;19.054;2023-11-22T11:53:54;98044.09;;;-0.69;98.64
79331;BME280;68797;49.782;19.054;2023-11-22T11:56:21;98035.38;;;-0.71;97.81
79331;BME280;68797;49.782;19.054;2023-11-22T11:58:48;98073.00;;;-0.60;98.17
79331;BME280;68797;49.782;19.054;2023-11-22T12:01:19;98045.59;;;-0.79;98.71
79331;BME280;68797;49.782;19.054;2023-11-22T12:03:49;98056.19;;;-0.73;98.24
79331;BME280;68797;49.782;19.054;2023-11-22T12:06:16;98054.28;;;-0.78;98.43
79331;BME280;68797;49.782;19.054;2023-11-22T12:08:43;98055.63;;;-0.94;99.11
79331;BME280;68797;49.782;19.054;2023-11-22T12:11:09;98060.00;;;-0.93;99.97
79331;BME280;68797;49.782;19.054;2023-11-22T12:13:39;98058.06;;;-1.00;99.88
79331;BME280;68797;49.782;19.054;2023-11-22T12:16:09;98053.78;;;-1.00;100.00
79331;BME280;68797;49.782;19.054;2023-11-22T12:18:46;98061.84;;;-0.89;100.00
79331;BME280;68797;49.782;19.054;2023-11-22T12:21:17;98057.69;;;-0.82;100.00
79331;BME280;68797;49.782;19.054;2023-11-22T12:23:45;98059.31;;;-0.88;100.00
79331;BME280;68797;49.782;19.054;2023-11-22T12:26:14;98057.00;;;-0.75;99.08
79331;BME280;68797;49.782;19.054;2023-11-22T12:28:41;98049.81;;;-0.84;99.43
79331;BME280;68797;49.782;19.054;2023-11-22T12:31:09;98047.13;;;-0.89;99.96
79331;BME280;68797;49.782;19.054;2023-11-22T12:33:36;98055.84;;;-0.86;100.00
79331;BME280;68797;49.782;19.054;2023-11-22T12:36:04;98050.44;;;-0.94;99.78
79331;BME280;68797;49.782;19.054;2023-11-22T12:38:30;98053.59;;;-1.06;100.00
79331;BME280;68797;49.782;19.054;2023-11-22T12:40:58;98051.47;;;-1.21;100.00
79331;BME280;68797;49.782;19.054;2023-11-22T12:43:25;98058.84;;;-1.04;100.00
79331;BME280;68797;49.782;19.054;2023-11-22T12:46:02;98064.38;;;-0.92;100.00
79331;BME280;68797;49.782;19.054;2023-11-22T12:48:29;98042.44;;;-1.00;98.45
79331;BME280;68797;49.782;19.054;2023-11-22T12:50:56;98054.53;;;-1.04;99.31
79331;BME280;68797;49.782;19.054;2023-11-22T12:53:23;98055.41;;;-1.03;99.30